Time;durP1;ratioP1;P1;durP2;ratioP2;P2;SDS_P1;SDS_P2;PMS_P1;PMS_P2;Temp;Humidity;BMP_temperature;BMP_pressure;BME280_temperature;BME280_humidity;BME280_pressure;Samples;Min_cycle;Max_cycle;Signal;HPM_P1;HPM_P2
2022/04/07 00:01:52;;;;;;;1.70;1.20;;;;;;;10.17;59.47;98223.13;10105237;29;20064;-71
2022/04/07 00:06:54;;;;;;;2.17;1.30;;;;;;;10.13;59.64;98220.78;10102704;29;20065;-71
2022/04/07 00:11:55;;;;;;;1.67;1.15;;;;;;;10.20;59.42;98207.19;10105167;29;20140;-70
2022/04/07 00:16:59;;;;;;;3.40;1.20;;;;;;;10.19;59.63;98205.53;10104952;29;20071;-70
2022/04/07 00:22:01;;;;;;;2.60;1.30;;;;;;;10.25;59.38;98199.06;10104406;29;20049;-70
2022/04/07 00:27:03;;;;;;;2.97;1.23;;;;;;;10.18;59.89;98197.72;10104000;29;20060;-72
2022/04/07 00:32:06;;;;;;;3.22;1.40;;;;;;;10.15;60.01;98190.03;10103367;29;20041;-70
2022/04/07 00:37:08;;;;;;;2.42;1.40;;;;;;;10.09;60.56;98186.84;10104202;29;20049;-70
2022/04/07 00:42:10;;;;;;;3.22;1.33;;;;;;;10.09;60.34;98178.09;10103798;29;20057;-70
2022/04/07 00:47:12;;;;;;;1.25;1.00;;;;;;;10.17;60.12;98180.28;10102836;29;20059;-70
2022/04/07 00:52:15;;;;;;;2.72;1.33;;;;;;;10.16;60.30;98168.09;10104693;29;20045;-70
2022/04/07 00:57:17;;;;;;;4.57;1.20;;;;;;;10.10;60.76;98175.41;10103167;29;20052;-69
2022/04/07 01:02:19;;;;;;;1.33;1.08;;;;;;;10.01;61.22;98169.84;10103452;29;20053;-70
2022/04/07 01:07:21;;;;;;;2.35;1.10;;;;;;;10.07;61.11;98165.06;10102347;29;20053;-70
2022/04/07 01:12:23;;;;;;;2.17;1.58;;;;;;;10.00;61.83;98165.53;10103413;29;20053;-69
2022/04/07 01:17:25;;;;;;;2.05;1.13;;;;;;;10.08;61.04;98152.78;10101161;29;20057;-70
2022/04/07 01:22:26;;;;;;;2.10;1.17;;;;;;;10.19;60.76;98150.38;10102313;29;20057;-71
2022/04/07 01:27:28;;;;;;;2.55;1.35;;;;;;;10.08;61.35;98144.91;10102930;29;20097;-70
2022/04/07 01:32:39;;;;;;;2.95;1.30;;;;;;;10.04;61.59;98136.38;10101610;29;20423;-72
2022/04/07 01:37:44;;;;;;;2.78;1.02;;;;;;;10.08;61.56;98127.38;10101607;29;20041;-70
2022/04/07 01:42:48;;;;;;;1.95;1.13;;;;;;;9.95;62.08;98129.03;10101044;29;20056;-71
2022/04/07 01:47:52;;;;;;;1.55;0.88;;;;;;;9.92;62.20;98126.63;10101884;29;20049;-71
2022/04/07 01:52:54;;;;;;;2.58;1.05;;;;;;;9.87;62.21;98131.28;10101261;29;20128;-71
2022/04/07 01:57:56;;;;;;;1.23;0.98;;;;;;;9.74;62.69;98125.94;10101205;29;20496;-71
2022/04/07 02:02:58;;;;;;;1.35;0.90;;;;;;;9.89;62.31;98118.94;10100552;29;20041;-70
2022/04/07 02:08:00;;;;;;;3.33;1.20;;;;;;;9.87;62.61;98110.28;10100298;29;20045;-71
2022/04/07 02:13:01;;;;;;;1.67;1.08;;;;;;;9.81;63.21;98095.75;10099310;29;20045;-70
2022/04/07 02:18:03;;;;;;;2.30;1.10;;;;;;;9.77;63.30;98098.66;10100235;29;20048;-70
2022/04/07 02:23:05;;;;;;;1.83;0.98;;;;;;;9.79;63.39;98086.31;10099619;29;20496;-70
2022/04/07 02:28:06;;;;;;;1.60;0.80;;;;;;;9.85;63.59;98096.41;10099492;29;20081;-70
2022/04/07 02:33:08;;;;;;;2.33;0.90;;;;;;;9.76;63.80;98091.72;10098429;29;20049;-70
2022/04/07 02:38:09;;;;;;;1.98;1.00;;;;;;;9.80;63.87;98101.09;10099192;29;20057;-70
2022/04/07 02:43:11;;;;;;;1.85;0.82;;;;;;;9.65;64.58;98092.38;10099529;29;20069;-71
2022/04/07 02:48:12;;;;;;;2.45;1.00;;;;;;;9.82;64.22;98088.72;10097135;29;20085;-70
2022/04/07 02:53:14;;;;;;;2.10;1.10;;;;;;;9.86;64.16;98092.84;10098862;29;20397;-70
2022/04/07 02:58:16;;;;;;;1.52;0.90;;;;;;;9.92;64.22;98084.63;10099017;29;20053;-70
2022/04/07 03:03:17;;;;;;;1.75;0.93;;;;;;;9.67;65.11;98072.13;10098395;29;20109;-70
2022/04/07 03:08:19;;;;;;;1.45;0.90;;;;;;;9.56;65.55;98062.28;10098946;29;20499;-71
2022/04/07 03:13:21;;;;;;;3.28;1.02;;;;;;;9.62;65.29;98062.84;10099065;29;20049;-71
2022/04/07 03:18:22;;;;;;;2.05;1.05;;;;;;;9.56;65.67;98053.53;10098922;29;20068;-70
2022/04/07 03:23:24;;;;;;;1.50;0.90;;;;;;;9.64;65.58;98046.06;10098350;29;20535;-71
2022/04/07 03:28:26;;;;;;;1.88;1.02;;;;;;;9.61;65.90;98038.41;10098801;29;20049;-71
2022/04/07 03:33:27;;;;;;;1.42;0.85;;;;;;;9.63;66.09;98035.69;10104582;29;20100;-71
2022/04/07 03:38:30;;;;;;;1.33;0.90;;;;;;;9.71;65.43;98025.56;10107683;29;20360;-70
2022/04/07 03:43:33;;;;;;;1.58;0.90;;;;;;;9.66;66.05;98017.97;10106163;29;20093;-71
2022/04/07 03:48:35;;;;;;;1.58;1.10;;;;;;;9.67;66.26;98016.19;10106006;29;20067;-71
2022/04/07 03:53:37;;;;;;;2.92;1.00;;;;;;;9.58;66.60;98015.81;10104903;29;20053;-71
2022/04/07 03:58:38;;;;;;;2.05;1.10;;;;;;;9.60;66.36;98016.53;10104229;29;20102;-70
2022/04/07 04:03:40;;;;;;;1.02;0.90;;;;;;;9.54;66.72;98011.69;10105055;29;20059;-71
2022/04/07 04:08:42;;;;;;;1.27;1.05;;;;;;;9.63;66.45;98014.69;10104525;29;20049;-70
2022/04/07 04:13:45;;;;;;;1.48;0.80;;;;;;;9.47;67.29;98012.13;10105235;29;20105;-72
2022/04/07 04:18:47;;;;;;;2.08;1.00;;;;;;;9.44;67.04;98004.47;10106008;29;20526;-72
2022/04/07 04:23:48;;;;;;;1.73;0.98;;;;;;;9.68;66.54;97996.88;10104697;29;20500;-70
2022/04/07 04:28:50;;;;;;;2.45;1.10;;;;;;;9.71;66.44;97994.09;10104653;29;20053;-71
2022/04/07 04:33:52;;;;;;;1.63;0.90;;;;;;;9.65;66.50;97994.44;10104902;29;20110;-71
2022/04/07 04:38:53;;;;;;;2.17;0.90;;;;;;;9.44;67.53;97978.25;10104536;29;20041;-70
2022/04/07 04:43:55;;;;;;;2.50;1.00;;;;;;;9.51;67.47;98001.34;10102875;29;20163;-70
2022/04/07 04:48:58;;;;;;;1.48;1.33;;;;;;;9.53;67.46;97991.63;10103260;29;20049;-72
2022/04/07 04:54:00;;;;;;;1.63;0.80;;;;;;;9.64;67.25;97987.50;10104381;29;20056;-70
2022/04/07 04:59:01;;;;;;;1.65;0.98;;;;;;;9.68;67.20;97973.28;10103008;29;20051;-71
2022/04/07 05:04:03;;;;;;;2.25;1.00;;;;;;;9.75;66.48;97957.06;10101405;29;20068;-70
2022/04/07 05:09:05;;;;;;;0.93;0.60;;;;;;;9.87;66.30;97958.09;10102551;29;20097;-71
2022/04/07 05:14:06;;;;;;;1.17;0.70;;;;;;;9.90;66.26;97957.06;10102341;29;20114;-70
2022/04/07 05:19:08;;;;;;;2.33;0.82;;;;;;;10.04;65.70;97949.16;10103111;29;20049;-71
2022/04/07 05:24:10;;;;;;;1.08;0.70;;;;;;;10.23;64.76;97939.19;10103869;29;20052;-71
2022/04/07 05:29:11;;;;;;;1.30;0.80;;;;;;;10.28;64.04;97941.56;10105765;29;20045;-72
2022/04/07 05:34:13;;;;;;;1.17;0.73;;;;;;;10.26;64.19;97938.19;10104814;29;20045;-73
2022/04/07 05:39:15;;;;;;;2.35;0.80;;;;;;;10.50;62.93;97941.88;10105964;29;20085;-71
2022/04/07 05:44:17;;;;;;;2.00;0.80;;;;;;;10.72;62.37;97940.47;10104267;29;20059;-72
2022/04/07 05:49:19;;;;;;;1.27;0.77;;;;;;;10.74;61.56;97938.56;10105870;29;20531;-72
2022/04/07 05:54:20;;;;;;;1.45;0.70;;;;;;;10.80;61.32;97930.28;10103656;29;20408;-72
2022/04/07 05:59:22;;;;;;;1.77;0.75;;;;;;;10.95;60.36;97918.75;10102167;29;20059;-73
2022/04/07 06:04:23;;;;;;;1.27;0.70;;;;;;;11.00;60.49;97911.41;10104415;29;20048;-72
2022/04/07 06:09:25;;;;;;;0.60;0.40;;;;;;;11.10;60.30;97908.97;10101483;29;20057;-72
2022/04/07 06:14:27;;;;;;;0.60;0.50;;;;;;;11.19;60.65;97897.00;10102179;29;20082;-72
2022/04/07 06:19:28;;;;;;;0.95;0.40;;;;;;;11.26;59.39;97885.13;10102404;29;20049;-72
2022/04/07 06:24:30;;;;;;;0.70;0.50;;;;;;;11.31;58.58;97891.75;10102890;29;20500;-73
2022/04/07 06:29:32;;;;;;;1.33;0.50;;;;;;;11.43;58.31;97886.59;10100874;29;20085;-71
2022/04/07 06:34:34;;;;;;;0.98;0.43;;;;;;;11.69;56.46;97876.88;10102316;29;20044;-73
2022/04/07 06:39:36;;;;;;;1.45;0.63;;;;;;;11.58;56.52;97875.84;10100879;29;20056;-72
2022/04/07 06:44:38;;;;;;;0.50;0.40;;;;;;;11.57;56.75;97870.69;10099770;29;20456;-71
2022/04/07 06:49:39;;;;;;;1.23;0.60;;;;;;;11.67;56.45;97873.50;10101843;29;20045;-72
2022/04/07 06:54:41;;;;;;;1.92;0.40;;;;;;;11.74;56.02;97869.50;10099616;29;20057;-73
2022/04/07 06:59:42;;;;;;;0.52;0.38;;;;;;;11.67;56.29;97863.81;10099581;29;20551;-72
2022/04/07 07:04:44;;;;;;;2.10;0.40;;;;;;;11.70;56.47;97875.94;10100357;29;20060;-72
2022/04/07 07:09:46;;;;;;;1.00;0.40;;;;;;;11.81;56.31;97852.31;10107668;29;20056;-73
2022/04/07 07:14:48;;;;;;;0.47;0.32;;;;;;;11.82;56.16;97844.34;10109173;29;20101;-74
2022/04/07 07:19:49;;;;;;;0.35;0.20;;;;;;;11.91;56.74;97839.34;10106683;29;20041;-72
2022/04/07 07:24:51;;;;;;;1.33;0.35;;;;;;;11.85;56.68;97822.22;10106877;29;20045;-72
2022/04/07 07:29:53;;;;;;;0.38;0.30;;;;;;;12.00;55.57;97823.75;10106278;29;20057;-72
2022/04/07 07:34:54;;;;;;;0.10;0.10;;;;;;;12.14;55.52;97814.84;10104593;29;20041;-72
2022/04/07 07:39:56;;;;;;;1.20;0.40;;;;;;;12.61;54.51;97805.19;10102539;29;20049;-73
2022/04/07 07:44:57;;;;;;;0.70;0.40;;;;;;;12.53;54.38;97789.97;10088332;29;20049;-72
2022/04/07 07:50:00;;;;;;;0.55;0.20;;;;;;;12.59;54.97;97788.66;10105175;29;20448;-73
2022/04/07 07:55:02;;;;;;;0.52;0.32;;;;;;;12.84;53.32;97772.66;10102454;29;20065;-72
2022/04/07 08:00:07;;;;;;;0.47;0.30;;;;;;;12.85;53.69;97773.50;10104005;29;20045;-71
2022/04/07 08:05:09;;;;;;;0.30;0.22;;;;;;;13.16;52.89;97765.84;10103451;29;20097;-72
2022/04/07 08:10:11;;;;;;;0.40;0.35;;;;;;;13.50;51.96;97766.66;10102511;29;20116;-72
2022/04/07 08:15:12;;;;;;;3.65;0.35;;;;;;;13.52;52.25;97764.75;10102655;29;20075;-72
2022/04/07 08:20:14;;;;;;;0.98;0.20;;;;;;;13.96;50.91;97747.13;10102123;29;20050;-71
2022/04/07 08:25:16;;;;;;;0.88;0.20;;;;;;;14.08;50.18;97751.41;10103348;29;20057;-71
2022/04/07 08:30:18;;;;;;;0.30;0.22;;;;;;;14.13;50.47;97730.72;10101257;29;20045;-72
2022/04/07 08:35:19;;;;;;;2.17;0.30;;;;;;;13.61;51.30;97733.16;10069304;29;1024602;-72
2022/04/07 08:40:22;;;;;;;1.10;0.30;;;;;;;13.66;51.13;97735.44;10105594;29;20105;-72
2022/04/07 08:45:25;;;;;;;4.95;0.35;;;;;;;13.42;50.41;97735.63;10103239;29;20041;-71
2022/04/07 08:50:27;;;;;;;0.13;0.10;;;;;;;13.66;50.25;97697.66;10105351;29;20105;-72
2022/04/07 08:55:29;;;;;;;1.30;0.32;;;;;;;13.81;50.24;97696.38;10101821;29;20049;-71
2022/04/07 09:00:31;;;;;;;1.05;0.22;;;;;;;13.66;49.18;97679.16;10104579;29;20040;-71
2022/04/07 09:05:33;;;;;;;1.02;0.20;;;;;;;14.08;48.91;97669.50;10104637;29;20045;-71
2022/04/07 09:10:34;;;;;;;0.30;0.20;;;;;;;14.42;47.52;97656.91;10103522;29;20049;-73
2022/04/07 09:15:36;;;;;;;0.30;0.20;;;;;;;14.69;47.77;97629.94;10101641;29;20055;-73
2022/04/07 09:20:44;;;;;;;1.88;0.10;;;;;;;15.09;46.68;97621.97;10102792;29;20072;-72
2022/04/07 09:25:49;;;;;;;2.53;0.20;;;;;;;14.53;47.60;97627.78;10102785;29;20068;-71
2022/04/07 09:30:57;;;;;;;3.58;1.30;;;;;;;14.23;48.29;97618.00;10101796;29;20083;-72
2022/04/07 09:36:00;;;;;;;0.20;0.20;;;;;;;14.93;46.76;97624.31;10103073;29;20104;-71
2022/04/07 09:41:06;;;;;;;0.13;0.10;;;;;;;14.90;45.78;97606.06;10103722;29;20041;-71
2022/04/07 09:46:13;;;;;;;2.30;0.30;;;;;;;15.06;45.89;97593.16;10105617;29;20057;-72
2022/04/07 09:51:14;;;;;;;0.45;0.10;;;;;;;14.97;45.25;97588.69;10104328;29;20041;-72
2022/04/07 09:56:18;;;;;;;0.20;0.10;;;;;;;15.25;45.94;97567.72;10102789;29;20064;-72
2022/04/07 10:01:20;;;;;;;0.73;0.10;;;;;;;15.59;45.03;97573.44;10102166;29;20049;-71
2022/04/07 10:06:22;;;;;;;0.45;0.10;;;;;;;15.53;44.38;97558.09;10102285;29;20049;-71
2022/04/07 10:11:23;;;;;;;1.55;0.10;;;;;;;15.36;44.52;97541.94;10102048;29;20044;-73
2022/04/07 10:16:32;;;;;;;0.60;0.20;;;;;;;15.47;43.75;97518.94;10101766;29;20060;-71
2022/04/07 10:21:38;;;;;;;1.08;0.32;;;;;;;15.45;44.61;97512.94;10101638;29;20119;-71
2022/04/07 10:26:46;;;;;;;0.38;0.22;;;;;;;15.12;44.87;97509.75;10101519;29;20053;-72
2022/04/07 10:32:10;;;;;;;2.08;0.40;;;;;;;15.39;44.68;97494.00;10099821;29;20045;-71
2022/04/07 10:37:12;;;;;;;2.92;0.30;;;;;;;15.62;45.69;97478.63;10100409;29;20083;-72
2022/04/07 10:42:14;;;;;;;0.20;0.20;;;;;;;15.40;44.11;97457.78;10100311;29;20045;-73
2022/04/07 10:47:26;;;;;;;0.63;0.10;;;;;;;15.39;44.85;97440.22;10099472;29;20056;-73
2022/04/07 10:52:28;;;;;;;1.17;0.20;;;;;;;15.28;44.84;97432.47;10100275;29;20045;-72
2022/04/07 10:57:30;;;;;;;0.60;0.10;;;;;;;15.25;44.50;97433.56;10098059;29;20052;-72
2022/04/07 11:02:32;;;;;;;2.88;0.22;;;;;;;14.87;44.95;97432.63;10098513;29;20060;-72
2022/04/07 11:07:49;;;;;;;0.95;0.10;;;;;;;15.07;45.25;97396.41;10100466;29;20072;-72
2022/04/07 11:13:02;;;;;;;0.38;0.10;;;;;;;15.63;46.07;97377.06;10100084;29;20045;-71
2022/04/07 11:18:36;;;;;;;1.20;0.15;;;;;;;15.95;43.53;97365.22;10101128;29;20063;-72
2022/04/07 11:23:43;;;;;;;1.20;0.10;;;;;;;16.25;43.60;97363.25;10100653;29;20414;-71
2022/04/07 11:29:03;;;;;;;0.65;0.45;;;;;;;15.79;44.41;97331.44;10100643;29;20049;-73
2022/04/07 11:34:39;;;;;;;0.45;0.10;;;;;;;15.92;45.13;97327.59;10101093;29;20053;-73
2022/04/07 11:39:44;;;;;;;0.30;0.17;;;;;;;16.02;44.16;97325.72;10100703;29;20037;-73
2022/04/07 11:44:48;;;;;;;0.30;0.20;;;;;;;15.64;45.20;97315.19;10101059;29;20049;-73
2022/04/07 11:49:50;;;;;;;0.20;0.10;;;;;;;15.39;46.03;97315.81;10100837;29;20074;-71
2022/04/07 11:54:52;;;;;;;2.55;0.20;;;;;;;15.41;45.51;97315.69;10105993;29;20121;-73
2022/04/07 12:00:01;;;;;;;0.57;0.13;;;;;;;15.35;45.78;97307.34;10108102;29;20051;-72
2022/04/07 12:05:14;;;;;;;0.47;0.10;;;;;;;15.47;45.91;97300.06;10108950;29;20045;-72
2022/04/07 12:10:16;;;;;;;0.63;0.10;;;;;;;15.70;45.67;97291.75;10108110;29;20419;-72
2022/04/07 12:15:18;;;;;;;0.10;0.10;;;;;;;15.15;46.38;97274.00;10107039;29;20051;-71
2022/04/07 12:20:23;;;;;;;0.30;0.10;;;;;;;15.03;47.37;97254.81;10107307;29;20045;-70
2022/04/07 12:25:25;;;;;;;0.22;0.20;;;;;;;15.25;46.43;97234.25;10105785;29;20056;-69
2022/04/07 12:30:48;;;;;;;0.30;0.10;;;;;;;15.35;46.16;97227.09;10107123;29;20037;-70
2022/04/07 12:35:50;;;;;;;0.22;0.10;;;;;;;15.39;47.43;97217.88;10107388;29;20080;-70
2022/04/07 12:40:52;;;;;;;0.55;0.10;;;;;;;15.25;47.15;97207.81;10107979;29;20056;-71
2022/04/07 12:45:55;;;;;;;2.25;0.35;;;;;;;15.37;46.75;97181.00;10107686;29;20049;-72
2022/04/07 12:50:57;;;;;;;0.10;0.10;;;;;;;15.43;47.29;97170.78;10106928;29;20048;-72
2022/04/07 12:56:03;;;;;;;0.25;0.10;;;;;;;15.66;46.42;97182.63;10106878;29;20053;-72
2022/04/07 13:01:05;;;;;;;0.10;0.10;;;;;;;15.48;46.95;97169.34;10105065;29;20051;-72
2022/04/07 13:06:11;;;;;;;0.17;0.10;;;;;;;15.33;46.96;97160.28;10104009;29;20089;-73
2022/04/07 13:11:35;;;;;;;0.10;0.10;;;;;;;15.44;47.40;97143.34;10107050;29;20045;-76
2022/04/07 13:16:39;;;;;;;1.60;0.20;;;;;;;15.71;46.64;97132.72;10104611;29;20396;-73
2022/04/07 13:21:40;;;;;;;2.25;0.65;;;;;;;15.72;46.56;97107.09;10104721;29;20080;-74
2022/04/07 13:26:47;;;;;;;0.90;0.20;;;;;;;15.71;46.72;97110.69;10102507;29;20056;-73
2022/04/07 13:31:50;;;;;;;1.15;0.20;;;;;;;15.64;48.63;97087.47;10103000;29;20049;-73
2022/04/07 13:36:53;;;;;;;0.88;0.20;;;;;;;15.67;47.51;97085.50;10104109;29;20084;-73
2022/04/07 13:41:55;;;;;;;0.57;0.20;;;;;;;15.56;48.08;97086.53;10103342;29;20045;-73
2022/04/07 13:46:56;;;;;;;1.35;0.28;;;;;;;15.52;48.64;97080.72;10104313;29;20156;-73
2022/04/07 13:52:01;;;;;;;2.92;0.10;;;;;;;15.78;48.38;97072.03;10103653;29;20064;-73
2022/04/07 13:57:04;;;;;;;0.50;0.10;;;;;;;15.65;48.06;97064.47;10104539;29;20580;-72
2022/04/07 14:02:05;;;;;;;0.10;0.10;;;;;;;15.45;48.23;97045.25;10103486;29;20056;-73
2022/04/07 14:07:07;;;;;;;0.10;0.10;;;;;;;15.36;48.56;97040.84;10103794;29;20148;-73
2022/04/07 14:12:09;;;;;;;1.65;0.15;;;;;;;15.26;49.52;97030.34;10105374;29;20045;-72
2022/04/07 14:17:10;;;;;;;0.10;0.10;;;;;;;15.34;49.23;96990.72;10104997;29;20097;-72
2022/04/07 14:22:12;;;;;;;0.98;0.10;;;;;;;15.44;49.38;96977.41;10104491;29;20101;-72
2022/04/07 14:27:14;;;;;;;0.22;0.22;;;;;;;15.52;49.04;96952.81;10103376;29;20045;-72
2022/04/07 14:32:16;;;;;;;0.80;0.10;;;;;;;15.31;50.53;96961.09;10099327;29;20049;-72
2022/04/07 14:37:18;;;;;;;0.70;0.20;;;;;;;14.98;52.20;96937.00;10066536;29;20050;-73
2022/04/07 14:42:19;;;;;;;0.10;0.10;;;;;;;14.75;52.70;96931.34;10066776;29;20123;-71
2022/04/07 14:47:22;;;;;;;0.52;0.20;;;;;;;14.56;53.79;96929.66;10065701;29;20088;-72
2022/04/07 14:52:24;;;;;;;0.35;0.20;;;;;;;14.54;54.39;96920.22;10065527;29;20044;-72
2022/04/07 14:57:26;;;;;;;0.30;0.10;;;;;;;14.57;53.73;96907.56;10060544;29;20053;-72
2022/04/07 15:02:28;;;;;;;0.10;0.10;;;;;;;14.51;53.45;96894.91;10062998;29;20045;-71
2022/04/07 15:07:31;;;;;;;0.50;0.20;;;;;;;14.69;52.86;96886.16;10066428;29;20061;-72
2022/04/07 15:12:35;;;;;;;0.60;0.20;;;;;;;14.68;52.28;96876.56;10064592;29;20524;-71
2022/04/07 15:17:36;;;;;;;1.33;0.28;;;;;;;14.64;52.97;96890.09;10064431;29;20057;-73
2022/04/07 15:22:38;;;;;;;0.52;0.10;;;;;;;14.57;53.56;96878.47;10063328;29;20492;-73
2022/04/07 15:27:41;;;;;;;0.30;0.10;;;;;;;14.57;53.70;96890.88;10067388;29;20053;-73
2022/04/07 15:32:43;;;;;;;0.57;0.17;;;;;;;13.80;63.16;96927.22;10071204;29;20046;-71
2022/04/07 15:37:46;;;;;;;0.80;0.28;;;;;;;13.17;67.17;96889.19;10072081;29;20141;-72
2022/04/07 15:42:47;;;;;;;1.85;0.20;;;;;;;13.01;68.14;96893.22;10103040;29;20037;-71
2022/04/07 15:47:49;;;;;;;0.30;0.20;;;;;;;13.03;69.80;96886.03;10109773;29;20055;-72
2022/04/07 15:52:51;;;;;;;0.17;0.15;;;;;;;13.10;66.73;96917.91;10108561;29;20044;-73
2022/04/07 15:57:53;;;;;;;2.08;0.70;;;;;;;11.07;74.57;97181.00;10108308;29;20075;-73
2022/04/07 16:02:54;;;;;;;5.15;0.68;;;;;;;9.07;85.18;97145.31;10109673;29;20069;-73
2022/04/07 16:07:56;;;;;;;1.60;0.63;;;;;;;9.03;88.38;97111.53;10111214;29;20064;-72
2022/04/07 16:12:58;;;;;;;1.10;0.45;;;;;;;9.14;89.24;97126.50;10111220;29;20057;-72
2022/04/07 16:18:01;;;;;;;1.95;0.50;;;;;;;9.18;83.48;97093.91;10108230;29;20085;-74
2022/04/07 16:23:03;;;;;;;0.85;0.30;;;;;;;9.52;78.93;97119.31;10107613;29;20053;-74
2022/04/07 16:28:05;;;;;;;1.30;0.20;;;;;;;10.02;75.07;97075.31;10106566;29;20045;-73
2022/04/07 16:33:13;;;;;;;1.02;0.50;;;;;;;10.27;74.26;97036.69;10105438;29;20061;-74
2022/04/07 16:38:15;;;;;;;0.47;0.22;;;;;;;10.67;70.50;97060.66;10107257;29;20080;-73
2022/04/07 16:43:17;;;;;;;0.90;0.40;;;;;;;10.82;73.32;97040.19;10109735;29;20072;-72
2022/04/07 16:48:19;;;;;;;1.85;0.40;;;;;;;10.89;71.21;97041.38;10107551;29;20063;-73
2022/04/07 16:53:21;;;;;;;1.10;0.40;;;;;;;10.96;69.93;97034.66;10107320;29;20049;-74
2022/04/07 16:58:22;;;;;;;0.52;0.22;;;;;;;11.02;69.31;97044.69;10106906;29;20415;-73
2022/04/07 17:03:24;;;;;;;0.70;0.38;;;;;;;10.97;67.98;97038.13;10105523;29;20094;-73
2022/04/07 17:08:26;;;;;;;0.73;0.40;;;;;;;11.15;64.64;97033.16;10105268;29;20045;-73
2022/04/07 17:13:28;;;;;;;0.63;0.28;;;;;;;11.11;64.36;97036.06;10106059;29;20044;-73
2022/04/07 17:18:29;;;;;;;1.13;0.30;;;;;;;10.97;66.39;97051.25;10107289;29;20059;-73
2022/04/07 17:23:31;;;;;;;1.10;0.50;;;;;;;10.86;66.28;97052.13;10106678;29;20408;-74
2022/04/07 17:28:33;;;;;;;1.42;0.43;;;;;;;10.83;64.98;97049.75;10104602;29;20079;-72
2022/04/07 17:33:34;;;;;;;0.57;0.30;;;;;;;10.74;65.79;97063.63;10105064;29;20477;-74
2022/04/07 17:38:36;;;;;;;0.80;0.32;;;;;;;10.70;65.08;97075.31;10102489;29;20087;-74
2022/04/07 17:43:38;;;;;;;0.90;0.30;;;;;;;10.65;65.48;97075.69;10105032;29;20500;-72
2022/04/07 17:48:40;;;;;;;0.68;0.30;;;;;;;10.50;66.32;97080.38;10102737;29;20060;-72
2022/04/07 17:53:41;;;;;;;1.38;0.40;;;;;;;10.55;65.72;97087.88;10104876;29;20236;-74
2022/04/07 17:58:43;;;;;;;1.40;0.28;;;;;;;10.51;65.98;97095.16;10103515;29;20053;-74
2022/04/07 18:03:44;;;;;;;1.48;0.40;;;;;;;10.46;65.30;97097.31;10104287;29;20056;-73
2022/04/07 18:08:46;;;;;;;0.95;0.38;;;;;;;10.45;64.92;97103.53;10102977;29;20072;-73
2022/04/07 18:13:48;;;;;;;0.60;0.40;;;;;;;10.46;64.46;97112.25;10099716;29;20060;-73
2022/04/07 18:18:50;;;;;;;2.05;0.38;;;;;;;10.44;64.73;97116.75;10063248;29;20072;-72
2022/04/07 18:23:52;;;;;;;0.40;0.40;;;;;;;10.39;65.24;97114.50;10062956;29;20049;-72
2022/04/07 18:28:54;;;;;;;1.52;0.30;;;;;;;10.47;63.94;97127.88;10063946;29;20055;-74
2022/04/07 18:33:56;;;;;;;0.30;0.30;;;;;;;10.39;64.69;97139.91;10063861;29;20048;-73
2022/04/07 18:38:57;;;;;;;0.98;0.50;;;;;;;10.41;65.00;97151.16;10065113;29;20054;-73
2022/04/07 18:43:59;;;;;;;1.00;0.40;;;;;;;10.38;64.83;97149.59;10078143;29;20049;-72
2022/04/07 18:49:01;;;;;;;1.23;0.30;;;;;;;10.29;65.80;97160.81;10064799;29;20049;-76
2022/04/07 18:54:03;;;;;;;0.30;0.30;;;;;;;10.43;64.45;97163.19;10063596;29;20049;-73
2022/04/07 18:59:05;;;;;;;2.08;0.85;;;;;;;10.39;64.95;97180.16;10062818;29;20121;-73
2022/04/07 19:04:07;;;;;;;0.70;0.40;;;;;;;10.44;65.56;97209.50;10061109;29;20046;-73
2022/04/07 19:09:09;;;;;;;1.92;0.85;;;;;;;10.03;66.16;97239.69;10063645;29;20092;-72
2022/04/07 19:14:11;;;;;;;1.92;0.77;;;;;;;9.76;61.47;97233.84;10063052;29;20116;-72
2022/04/07 19:19:13;;;;;;;2.17;0.70;;;;;;;9.44;62.23;97250.13;10063242;29;20049;-72
2022/04/07 19:24:14;;;;;;;1.75;0.60;;;;;;;9.39;62.27;97265.34;10063241;29;20041;-74
2022/04/07 19:29:17;;;;;;;1.00;0.47;;;;;;;9.29;62.72;97273.00;10062010;29;20492;-73
2022/04/07 19:34:19;;;;;;;2.00;0.60;;;;;;;9.35;62.58;97296.19;10063754;29;20500;-72
2022/04/07 19:39:21;;;;;;;0.88;0.50;;;;;;;9.17;63.42;97304.50;10062562;29;20058;-73
2022/04/07 19:44:23;;;;;;;3.63;0.80;;;;;;;9.15;63.34;97303.75;10060145;29;20059;-72
2022/04/07 19:49:24;;;;;;;2.33;1.00;;;;;;;8.93;64.98;97326.19;10060201;29;20088;-73
2022/04/07 19:54:26;;;;;;;1.70;0.70;;;;;;;8.87;65.33;97346.75;10060671;29;20467;-72
2022/04/07 19:59:29;;;;;;;1.95;0.60;;;;;;;8.81;65.14;97356.69;10062489;29;20109;-72
2022/04/07 20:04:31;;;;;;;3.55;0.90;;;;;;;8.82;63.28;97373.25;10060782;29;20546;-73
2022/04/07 20:09:34;;;;;;;2.28;0.80;;;;;;;8.70;62.60;97347.88;10062379;29;20045;-72
2022/04/07 20:14:35;;;;;;;2.00;0.70;;;;;;;8.53;61.54;97331.50;10066938;29;20045;-72
2022/04/07 20:19:37;;;;;;;4.43;0.68;;;;;;;8.52;60.58;97337.69;10067585;29;20512;-73
2022/04/07 20:24:39;;;;;;;2.45;0.60;;;;;;;8.44;61.10;97339.97;10068329;29;20053;-73
2022/04/07 20:29:42;;;;;;;2.30;0.60;;;;;;;8.27;62.95;97359.34;10068175;29;20401;-73
2022/04/07 20:34:44;;;;;;;2.47;0.70;;;;;;;8.37;63.93;97443.41;10067344;29;20141;-72
2022/04/07 20:39:46;;;;;;;3.38;0.90;;;;;;;8.03;71.01;97421.13;10067824;29;20423;-73
2022/04/07 20:44:48;;;;;;;2.92;0.80;;;;;;;7.63;72.57;97396.63;10066279;29;20500;-72
2022/04/07 20:49:51;;;;;;;3.25;0.93;;;;;;;7.53;71.67;97404.19;10066240;29;20481;-72
2022/04/07 20:54:53;;;;;;;1.33;0.50;;;;;;;7.66;69.50;97438.25;10067578;29;20080;-72
2022/04/07 20:59:54;;;;;;;3.03;0.70;;;;;;;7.76;67.36;97429.75;10068879;29;20052;-73
2022/04/07 21:04:56;;;;;;;2.30;0.73;;;;;;;7.41;68.80;97452.81;10068197;29;20046;-73
2022/04/07 21:09:58;;;;;;;2.45;0.73;;;;;;;7.11;73.79;97486.00;10068367;29;20045;-73
2022/04/07 21:15:00;;;;;;;4.10;1.05;;;;;;;6.92;75.82;97496.66;10068243;29;20045;-72
2022/04/07 21:20:02;;;;;;;5.88;1.40;;;;;;;6.85;76.16;97477.88;10068092;29;20056;-73
2022/04/07 21:25:04;;;;;;;3.17;0.70;;;;;;;6.88;75.42;97511.66;10068075;29;20095;-73
2022/04/07 21:30:06;;;;;;;4.13;0.82;;;;;;;6.94;75.84;97503.47;10081845;29;20058;-73
2022/04/07 21:35:09;;;;;;;8.10;1.65;;;;;;;6.82;77.24;97491.13;10067951;29;20053;-73
2022/04/07 21:40:11;;;;;;;4.40;0.70;;;;;;;6.96;74.00;97522.50;10068295;29;20041;-72
2022/04/07 21:45:12;;;;;;;3.58;0.63;;;;;;;6.96;74.02;97530.34;10067373;29;20056;-73
2022/04/07 21:50:14;;;;;;;2.58;0.70;;;;;;;6.88;72.68;97540.38;10064468;29;20144;-73
2022/04/07 21:55:16;;;;;;;2.45;0.70;;;;;;;6.87;73.51;97545.72;10066454;29;20045;-72
2022/04/07 22:00:18;;;;;;;1.75;0.70;;;;;;;6.83;73.33;97555.47;10065749;29;20051;-72
2022/04/07 22:05:19;;;;;;;2.13;0.60;;;;;;;6.82;74.37;97569.47;10064423;29;20073;-73
2022/04/07 22:10:21;;;;;;;2.25;0.70;;;;;;;6.81;74.17;97583.41;10064145;29;20053;-72
2022/04/07 22:15:23;;;;;;;3.08;0.82;;;;;;;6.69;75.19;97600.63;10078580;29;20133;-72
2022/04/07 22:20:25;;;;;;;2.72;0.95;;;;;;;6.85;72.73;97605.84;10064826;29;20132;-72
2022/04/07 22:25:26;;;;;;;1.98;0.85;;;;;;;6.78;73.53;97584.47;10065917;29;20117;-73
2022/04/07 22:30:28;;;;;;;2.92;0.82;;;;;;;6.73;72.84;97596.94;10066428;29;20053;-73
2022/04/07 22:35:30;;;;;;;2.90;0.80;;;;;;;6.65;72.76;97612.16;10065083;29;20091;-72
2022/04/07 22:40:32;;;;;;;2.13;0.75;;;;;;;6.64;72.87;97601.78;10064104;29;20575;-73
2022/04/07 22:45:34;;;;;;;2.53;0.65;;;;;;;6.66;72.07;97626.06;10065810;29;20049;-74
2022/04/07 22:50:36;;;;;;;1.95;0.68;;;;;;;6.73;70.93;97622.16;10065177;29;20518;-74
2022/04/07 22:55:42;;;;;;;4.63;0.73;;;;;;;6.72;70.41;97623.94;10064888;29;20060;-73
2022/04/07 23:00:44;;;;;;;2.15;0.90;;;;;;;6.75;70.54;97610.72;10065475;29;20045;-73
2022/04/07 23:05:46;;;;;;;1.77;0.65;;;;;;;6.74;70.95;97610.81;10064756;29;20045;-73
2022/04/07 23:10:48;;;;;;;2.40;0.60;;;;;;;6.86;69.54;97602.28;10061329;29;20571;-73
2022/04/07 23:15:52;;;;;;;2.90;0.98;;;;;;;6.90;68.54;97603.81;10062475;29;20049;-74
2022/04/07 23:20:56;;;;;;;3.38;1.40;;;;;;;6.91;67.21;97595.06;10063150;29;20053;-74
2022/04/07 23:25:58;;;;;;;3.28;1.00;;;;;;;7.02;66.82;97594.44;10076852;29;20050;-72
2022/04/07 23:30:59;;;;;;;4.28;0.80;;;;;;;7.08;65.30;97592.34;10064219;29;20124;-73
2022/04/07 23:36:01;;;;;;;6.90;0.52;;;;;;;7.24;63.75;97588.84;10064268;29;20180;-73